Time,TemperatureF,DewpointF,PressureIn,WindDirection,WindDirectionDegrees,WindSpeedMPH,WindSpeedGustMPH,Humidity,HourlyPrecipIn,Conditions,Clouds,dailyrainin,SoftwareType,DateUTC
2013-01-21 00:32:00,26.4,7.8,29.86,NNW,336,5.8,12.6,45,0.00,n/a,n/a,-99.99,Henriksen +1-Wire,2013-01-21 05:32:00,
2013-01-21 00:33:00,26.4,7.8,29.86,NNW,334,7.5,14.2,44,0.00,n/a,n/a,-99.99,Henriksen +1-Wire,2013-01-21 05:33:00,
2013-01-21 00:34:00,26.5,7.8,29.86,NNW,334,7.3,14.2,44,0.00,n/a,n/a,-99.99,Henriksen +1-Wire,2013-01-21 05:34:00,
2013-01-21 00:37:00,26.5,7.8,29.86,NNW,334,7.7,15.0,44,0.00,n/a,n/a,-99.99,Henriksen +1-Wire,2013-01-21 05:37:00,
2013-01-21 00:43:00,26.5,8.0,29.86,NW,319,8.9,20.3,45,0.00,n/a,n/a,-99.99,Henriksen +1-Wire,2013-01-21 05:43:00,
2013-01-21 00:48:00,26.5,8.1,29.87,NW,325,5.5,20.3,45,0.00,n/a,n/a,-99.99,Henriksen +1-Wire,2013-01-21 05:48:00,
2013-01-21 00:53:00,26.4,7.9,29.87,NW,322,8.9,16.8,45,0.00,n/a,n/a,-99.99,Henriksen +1-Wire,2013-01-21 05:53:00,
2013-01-21 00:58:00,26.4,7.8,29.87,NNW,327,6.9,17.4,45,0.00,n/a,n/a,-99.99,Henriksen +1-Wire,2013-01-21 05:58:00,
2013-01-21 01:03:00,26.4,8.0,29.87,NW,321,10.9,24.5,45,0.00,n/a,n/a,-99.99,Henriksen +1-Wire,2013-01-21 06:03:00,
2013-01-21 01:09:00,26.3,7.8,29.87,NW,323,6.4,24.5,45,0.00,n/a,n/a,-99.99,Henriksen +1-Wire,2013-01-21 06:09:00,
2013-01-21 03:14:00,22.6,2.5,29.92,NNW,330,7.1,11.8,41,0.00,n/a,n/a,-99.99,Henriksen +1-Wire,2013-01-21 08:14:00,
2013-01-21 03:19:00,22.4,2.1,29.92,NNW,329,5.3,14.1,41,0.00,n/a,n/a,-99.99,Henriksen +1-Wire,2013-01-21 08:19:00,
2013-01-21 03:24:00,22.2,2.0,29.93,NNW,327,6.1,14.1,41,0.00,n/a,n/a,-99.99,Henriksen +1-Wire,2013-01-21 08:24:00,
2013-01-21 03:30:00,22.1,2.1,29.93,NW,320,9.1,18.9,41,0.00,n/a,n/a,-99.99,Henriksen +1-Wire,2013-01-21 08:30:00,
2013-01-21 03:36:00,22.2,2.3,29.92,NW,317,5.7,18.9,41,0.00,n/a,n/a,-99.99,Henriksen +1-Wire,2013-01-21 08:36:00,
2013-01-21 03:42:00,22.3,2.7,29.92,NW,317,5.3,15.4,42,0.00,n/a,n/a,-99.99,Henriksen +1-Wire,2013-01-21 08:42:00,
2013-01-21 05:48:00,21.2,3.9,29.97,NNW,331,3.5,7.9,46,0.00,n/a,n/a,-99.99,Henriksen +1-Wire,2013-01-21 10:48:00,
2013-01-21 05:53:00,21.2,3.9,29.97,NW,313,2.2,7.7,46,0.00,n/a,n/a,-99.99,Henriksen +1-Wire,2013-01-21 10:53:00,
2013-01-21 05:58:00,21.2,3.7,29.98,NW,314,1.9,7.7,46,0.00,n/a,n/a,-99.99,Henriksen +1-Wire,2013-01-21 10:58:00,
2013-01-21 06:04:00,21.1,3.6,29.98,NW,307,0.8,7.7,46,0.00,n/a,n/a,-99.99,Henriksen +1-Wire,2013-01-21 11:04:00,
2013-01-21 06:09:00,21.0,3.7,29.98,WNW,302,0.2,5.5,46,0.00,n/a,n/a,-99.99,Henriksen +1-Wire,2013-01-21 11:09:00,
2013-01-21 08:12:00,20.6,-2.0,30.03,NW,313,0.4,8.1,36,0.00,n/a,n/a,-99.99,Henriksen +1-Wire,2013-01-21 13:12:00,
2013-01-21 08:17:00,20.5,-3.8,30.03,NW,315,3.7,8.7,33,0.00,n/a,n/a,-99.99,Henriksen +1-Wire,2013-01-21 13:17:00,
2013-01-21 08:22:00,20.4,-0.9,30.02,NW,317,5.3,8.8,39,0.00,n/a,n/a,-99.99,Henriksen +1-Wire,2013-01-21 13:22:00,
2013-01-21 08:28:00,20.4,1.1,30.02,NW,315,1.9,9.3,42,0.00,n/a,n/a,-99.99,Henriksen +1-Wire,2013-01-21 13:28:00,
2013-01-21 08:34:00,20.4,1.9,30.02,NW,320,4.1,10.3,44,0.00,n/a,n/a,-99.99,Henriksen +1-Wire,2013-01-21 13:34:00,
2013-01-21 08:39:00,20.7,2.8,30.02,NW,315,2.1,10.3,45,0.00,n/a,n/a,-99.99,Henriksen +1-Wire,2013-01-21 13:39:00,
2013-01-21 08:45:00,20.6,3.2,30.02,NW,321,4.2,8.6,46,0.00,n/a,n/a,-99.99,Henriksen +1-Wire,2013-01-21 13:45:00,
2013-01-21 08:50:00,20.6,3.4,30.02,NW,318,2.7,8.6,47,0.00,n/a,n/a,-99.99,Henriksen +1-Wire,2013-01-21 13:50:00,
2013-01-21 08:56:00,21.5,4.2,30.02,NW,318,2.4,7.9,47,0.00,n/a,n/a,-99.99,Henriksen +1-Wire,2013-01-21 13:56:00,
2013-01-21 09:01:00,22.1,4.9,30.02,NNW,330,1.8,7.9,47,0.00,n/a,n/a,-99.99,Henriksen +1-Wire,2013-01-21 14:01:00,
2013-01-21 09:06:00,22.4,5.2,30.02,NW,316,4.1,10.5,47,0.00,n/a,n/a,-99.99,Henriksen +1-Wire,2013-01-21 14:06:00,
2013-01-21 09:11:00,22.6,5.3,30.02,NW,320,3.4,10.5,47,0.00,n/a,n/a,-99.99,Henriksen +1-Wire,2013-01-21 14:11:00,
2013-01-21 09:16:00,22.5,4.8,30.02,NNW,342,2.7,10.2,46,0.00,n/a,n/a,-99.99,Henriksen +1-Wire,2013-01-21 14:16:00,
2013-01-21 09:22:00,22.3,4.4,30.00,NW,313,3.0,10.3,45,0.00,n/a,n/a,-99.99,Henriksen +1-Wire,2013-01-21 14:22:00,
2013-01-21 09:27:00,22.2,4.1,30.01,NW,313,4.2,8.7,45,0.00,n/a,n/a,-99.99,Henriksen +1-Wire,2013-01-21 14:27:00,
2013-01-21 09:32:00,22.2,3.6,30.02,WNW,300,3.5,8.7,44,0.00,n/a,n/a,-99.99,Henriksen +1-Wire,2013-01-21 14:32:00,
2013-01-21 09:38:00,22.5,3.7,30.02,NNW,330,4.6,10.2,44,0.00,n/a,n/a,-99.99,Henriksen +1-Wire,2013-01-21 14:38:00,
2013-01-21 09:43:00,22.4,3.5,30.03,NW,324,2.7,12.6,43,0.00,n/a,n/a,-99.99,Henriksen +1-Wire,2013-01-21 14:43:00,
2013-01-21 09:48:00,23.1,3.9,30.03,NW,320,2.1,12.6,43,0.00,n/a,n/a,-99.99,Henriksen +1-Wire,2013-01-21 14:48:00,
2013-01-21 09:53:00,23.7,3.9,30.03,NW,322,1.8,7.7,42,0.00,n/a,n/a,-99.99,Henriksen +1-Wire,2013-01-21 14:53:00,
2013-01-21 09:58:00,24.1,4.3,30.03,North,351,3.1,7.7,42,0.00,n/a,n/a,-99.99,Henriksen +1-Wire,2013-01-21 14:58:00,
2013-01-21 10:03:00,24.4,4.4,30.03,North,358,2.2,6.5,41,0.00,n/a,n/a,-99.99,Henriksen +1-Wire,2013-01-21 15:03:00,
2013-01-21 10:08:00,24.6,4.4,30.03,North,355,1.6,9.4,41,0.00,n/a,n/a,-99.99,Henriksen +1-Wire,2013-01-21 15:08:00,
2013-01-21 10:13:00,24.7,4.3,30.03,NNW,339,2.0,9.4,41,0.00,n/a,n/a,-99.99,Henriksen +1-Wire,2013-01-21 15:13:00,
2013-01-21 10:18:00,24.8,4.2,30.03,NNW,335,4.8,8.7,40,0.00,n/a,n/a,-99.99,Henriksen +1-Wire,2013-01-21 15:18:00,
2013-01-21 10:23:00,24.8,4.0,30.03,NNW,332,5.8,11.0,40,0.00,n/a,n/a,-99.99,Henriksen +1-Wire,2013-01-21 15:23:00,
2013-01-21 10:28:00,24.8,3.8,30.03,NNW,331,2.5,11.0,40,0.00,n/a,n/a,-99.99,Henriksen +1-Wire,2013-01-21 15:28:00,
2013-01-21 10:33:00,24.8,3.6,30.03,NNW,342,5.6,12.9,39,0.00,n/a,n/a,-99.99,Henriksen +1-Wire,2013-01-21 15:33:00,
2013-01-21 10:38:00,24.8,3.7,30.03,NNW,327,4.1,12.9,40,0.00,n/a,n/a,-99.99,Henriksen +1-Wire,2013-01-21 15:38:00,
2013-01-21 10:43:00,24.7,3.6,30.03,NNW,330,2.4,11.8,40,0.00,n/a,n/a,-99.99,Henriksen +1-Wire,2013-01-21 15:43:00,
2013-01-21 10:49:00,24.4,3.5,30.03,NW,318,2.1,11.8,40,0.00,n/a,n/a,-99.99,Henriksen +1-Wire,2013-01-21 15:49:00,
2013-01-21 10:54:00,24.5,3.5,30.02,NNW,330,2.1,9.8,40,0.00,n/a,n/a,-99.99,Henriksen +1-Wire,2013-01-21 15:54:00,
2013-01-21 10:59:00,24.3,3.2,30.02,NNW,329,1.5,9.8,39,0.00,n/a,n/a,-99.99,Henriksen +1-Wire,2013-01-21 15:59:00,
2013-01-21 11:04:00,24.2,3.1,30.02,NW,321,1.6,7.6,39,0.00,n/a,n/a,-99.99,Henriksen +1-Wire,2013-01-21 16:04:00,
2013-01-21 11:09:00,24.4,3.2,30.02,NW,318,1.5,7.5,39,0.00,n/a,n/a,-99.99,Henriksen +1-Wire,2013-01-21 16:09:00,
2013-01-21 11:14:00,25.2,3.9,30.02,NNW,340,2.3,7.5,39,0.00,n/a,n/a,-99.99,Henriksen +1-Wire,2013-01-21 16:14:00,
2013-01-21 11:19:00,25.7,4.4,30.01,NNW,329,0.8,7.5,39,0.00,n/a,n/a,-99.99,Henriksen +1-Wire,2013-01-21 16:19:00,
2013-01-21 11:24:00,25.8,4.4,30.00,NW,320,0.2,7.9,39,0.00,n/a,n/a,-99.99,Henriksen +1-Wire,2013-01-21 16:24:00,
2013-01-21 11:29:00,26.0,4.5,30.00,NW,315,1.5,7.9,39,0.00,n/a,n/a,-99.99,Henriksen +1-Wire,2013-01-21 16:29:00,
2013-01-21 11:34:00,26.0,4.3,30.00,West,273,3.1,7.2,39,0.00,n/a,n/a,-99.99,Henriksen +1-Wire,2013-01-21 16:34:00,
2013-01-21 11:39:00,26.1,4.3,29.99,WNW,290,2.5,10.3,39,0.00,n/a,n/a,-99.99,Henriksen +1-Wire,2013-01-21 16:39:00,
2013-01-21 11:44:00,25.9,4.2,29.99,West,281,0.1,10.3,38,0.00,n/a,n/a,-99.99,Henriksen +1-Wire,2013-01-21 16:44:00,
2013-01-21 11:50:00,26.1,4.3,29.98,WNW,296,0.9,6.4,38,0.00,n/a,n/a,-99.99,Henriksen +1-Wire,2013-01-21 16:50:00,
2013-01-21 11:55:00,26.0,4.3,29.98,NW,318,0.7,6.1,39,0.00,n/a,n/a,-99.99,Henriksen +1-Wire,2013-01-21 16:55:00,
2013-01-21 12:01:00,25.9,4.3,29.98,NW,317,1.7,6.3,39,0.00,n/a,n/a,-99.99,Henriksen +1-Wire,2013-01-21 17:01:00,
2013-01-21 12:06:00,26.0,4.2,29.98,NW,316,2.0,6.3,39,0.00,n/a,n/a,-99.99,Henriksen +1-Wire,2013-01-21 17:06:00,
2013-01-21 12:12:00,26.0,4.1,29.97,WNW,286,4.0,7.9,38,0.00,n/a,n/a,-99.99,Henriksen +1-Wire,2013-01-21 17:12:00,
2013-01-21 12:17:00,25.9,4.2,29.97,West,281,1.4,7.9,39,0.00,n/a,n/a,-99.99,Henriksen +1-Wire,2013-01-21 17:17:00,
2013-01-21 12:22:00,26.0,4.5,29.97,NW,315,1.8,7.1,39,0.00,n/a,n/a,-99.99,Henriksen +1-Wire,2013-01-21 17:22:00,
2013-01-21 12:27:00,26.8,5.3,29.97,West,274,2.0,7.1,39,0.00,n/a,n/a,-99.99,Henriksen +1-Wire,2013-01-21 17:27:00,
2013-01-21 12:32:00,27.3,6.0,29.97,West,271,0.3,7.1,40,0.00,n/a,n/a,-99.99,Henriksen +1-Wire,2013-01-21 17:32:00,
2013-01-21 12:37:00,27.5,6.5,29.97,West,273,2.9,7.1,40,0.00,n/a,n/a,-99.99,Henriksen +1-Wire,2013-01-21 17:37:00,
2013-01-21 12:42:00,26.9,6.0,29.97,NNW,330,2.7,7.1,40,0.00,n/a,n/a,-99.99,Henriksen +1-Wire,2013-01-21 17:42:00,
2013-01-21 12:47:00,26.5,5.5,29.96,NW,320,1.5,5.6,40,0.00,n/a,n/a,-99.99,Henriksen +1-Wire,2013-01-21 17:47:00,
2013-01-21 12:52:00,26.3,5.5,29.96,NNW,338,4.3,8.2,40,0.00,n/a,n/a,-99.99,Henriksen +1-Wire,2013-01-21 17:52:00,
2013-01-21 12:57:00,26.1,5.3,29.96,NNW,335,0.1,8.2,40,0.00,n/a,n/a,-99.99,Henriksen +1-Wire,2013-01-21 17:57:00,
2013-01-21 13:02:00,26.6,5.8,29.96,WNW,302,0.6,5.7,40,0.00,n/a,n/a,-99.99,Henriksen +1-Wire,2013-01-21 18:02:00,
2013-01-21 13:08:00,26.3,5.8,29.96,WNW,299,2.8,6.3,41,0.00,n/a,n/a,-99.99,Henriksen +1-Wire,2013-01-21 18:08:00,
2013-01-21 13:13:00,26.1,5.8,29.96,WNW,289,1.5,6.3,41,0.00,n/a,n/a,-99.99,Henriksen +1-Wire,2013-01-21 18:13:00,
2013-01-21 13:18:00,25.9,5.7,29.95,West,265,1.2,5.5,41,0.00,n/a,n/a,-99.99,Henriksen +1-Wire,2013-01-21 18:18:00,
2013-01-21 13:23:00,25.8,5.9,29.95,West,262,0.3,5.5,42,0.00,n/a,n/a,-99.99,Henriksen +1-Wire,2013-01-21 18:23:00,
2013-01-21 13:28:00,25.8,6.1,29.95,West,259,4.3,10.2,42,0.00,n/a,n/a,-99.99,Henriksen +1-Wire,2013-01-21 18:28:00,
2013-01-21 13:33:00,25.8,6.3,29.95,WSW,258,0.5,10.2,43,0.00,n/a,n/a,-99.99,Henriksen +1-Wire,2013-01-21 18:33:00,
2013-01-21 13:38:00,25.9,6.5,29.95,West,266,2.8,6.3,43,0.00,n/a,n/a,-99.99,Henriksen +1-Wire,2013-01-21 18:38:00,
2013-01-21 13:43:00,25.9,6.9,29.95,WSW,258,2.4,8.7,44,0.00,n/a,n/a,-99.99,Henriksen +1-Wire,2013-01-21 18:43:00,
2013-01-21 13:48:00,25.9,7.2,29.95,West,261,2.1,8.7,44,0.00,n/a,n/a,-99.99,Henriksen +1-Wire,2013-01-21 18:48:00,
2013-01-21 13:53:00,26.3,7.7,29.95,West,261,1.2,5.5,45,0.00,n/a,n/a,-99.99,Henriksen +1-Wire,2013-01-21 18:53:00,
2013-01-21 13:58:00,26.8,8.3,29.95,WSW,246,1.7,4.5,45,0.00,n/a,n/a,-99.99,Henriksen +1-Wire,2013-01-21 18:58:00,
2013-01-21 14:03:00,26.5,8.2,29.95,West,280,0.5,4.5,45,0.00,n/a,n/a,-99.99,Henriksen +1-Wire,2013-01-21 19:03:00,
2013-01-21 14:08:00,26.5,8.3,29.95,West,273,0.3,3.9,46,0.00,n/a,n/a,-99.99,Henriksen +1-Wire,2013-01-21 19:08:00,
2013-01-21 14:13:00,26.4,8.5,29.95,SW,235,0.6,4.2,46,0.00,n/a,n/a,-99.99,Henriksen +1-Wire,2013-01-21 19:13:00,
2013-01-21 14:18:00,26.2,8.1,29.95,West,279,2.5,7.9,46,0.00,n/a,n/a,-99.99,Henriksen +1-Wire,2013-01-21 19:18:00,
2013-01-21 14:23:00,26.0,7.9,29.95,West,268,0.5,7.9,45,0.00,n/a,n/a,-99.99,Henriksen +1-Wire,2013-01-21 19:23:00,
2013-01-21 14:28:00,26.3,8.1,29.95,West,276,2.4,4.7,45,0.00,n/a,n/a,-99.99,Henriksen +1-Wire,2013-01-21 19:28:00,
2013-01-21 14:33:00,26.4,8.1,29.95,WNW,293,2.7,4.7,45,0.00,n/a,n/a,-99.99,Henriksen +1-Wire,2013-01-21 19:33:00,
2013-01-21 14:38:00,26.2,7.7,29.94,WNW,295,1.2,4.8,45,0.00,n/a,n/a,-99.99,Henriksen +1-Wire,2013-01-21 19:38:00,
2013-01-21 14:43:00,26.0,7.5,29.94,West,260,0.2,4.8,45,0.00,n/a,n/a,-99.99,Henriksen +1-Wire,2013-01-21 19:43:00,
2013-01-21 14:49:00,25.9,7.3,29.94,West,279,1.9,5.8,45,0.00,n/a,n/a,-99.99,Henriksen +1-Wire,2013-01-21 19:49:00,
2013-01-21 14:54:00,25.8,7.4,29.94,NW,316,0.9,5.8,45,0.00,n/a,n/a,-99.99,Henriksen +1-Wire,2013-01-21 19:54:00,
2013-01-21 14:59:00,25.8,7.4,29.94,WNW,285,2.2,5.7,45,0.00,n/a,n/a,-99.99,Henriksen +1-Wire,2013-01-21 19:59:00,
2013-01-21 15:04:00,25.7,7.5,29.94,WNW,297,1.3,4.9,45,0.00,n/a,n/a,-99.99,Henriksen +1-Wire,2013-01-21 20:04:00,
2013-01-21 15:09:00,25.7,7.6,29.94,WNW,292,1.7,4.9,45,0.00,n/a,n/a,-99.99,Henriksen +1-Wire,2013-01-21 20:09:00,
2013-01-21 15:14:00,25.7,8.0,29.94,WSW,242,1.7,3.5,46,0.00,n/a,n/a,-99.99,Henriksen +1-Wire,2013-01-21 20:14:00,
2013-01-21 15:19:00,25.8,8.4,29.94,WSW,258,1.4,3.9,47,0.00,n/a,n/a,-99.99,Henriksen +1-Wire,2013-01-21 20:19:00,
2013-01-21 15:24:00,25.8,8.3,29.93,WSW,254,0.6,4.6,47,0.00,n/a,n/a,-99.99,Henriksen +1-Wire,2013-01-21 20:24:00,
2013-01-21 15:30:00,25.7,8.3,29.93,West,263,0.7,4.6,47,0.00,n/a,n/a,-99.99,Henriksen +1-Wire,2013-01-21 20:30:00,
2013-01-21 15:36:00,25.6,8.1,29.93,WSW,258,0.2,3.3,47,0.00,n/a,n/a,-99.99,Henriksen +1-Wire,2013-01-21 20:36:00,
2013-01-21 15:41:00,25.6,7.9,29.93,WSW,258,0.2,4.6,46,0.00,n/a,n/a,-99.99,Henriksen +1-Wire,2013-01-21 20:41:00,
2013-01-21 15:47:00,25.5,8.0,29.93,WNW,285,0.1,4.6,47,0.00,n/a,n/a,-99.99,Henriksen +1-Wire,2013-01-21 20:47:00,
2013-01-21 15:52:00,25.6,8.1,29.93,WNW,294,1.5,3.3,47,0.00,n/a,n/a,-99.99,Henriksen +1-Wire,2013-01-21 20:52:00,
2013-01-21 15:57:00,25.7,8.0,29.93,West,266,0.0,3.2,46,0.00,n/a,n/a,-99.99,Henriksen +1-Wire,2013-01-21 20:57:00,
2013-01-21 16:03:00,26.3,8.2,29.92,WSW,258,0.0,1.3,46,0.00,n/a,n/a,-99.99,Henriksen +1-Wire,2013-01-21 21:03:00,
2013-01-21 16:08:00,26.5,8.2,29.92,West,268,0.1,2.3,45,0.00,n/a,n/a,-99.99,Henriksen +1-Wire,2013-01-21 21:08:00,
2013-01-21 16:13:00,26.5,8.1,29.92,ENE,61,0.0,2.3,45,0.00,n/a,n/a,-99.99,Henriksen +1-Wire,2013-01-21 21:13:00,
2013-01-21 16:18:00,26.5,8.0,29.92,SW,230,0.0,0.0,45,0.00,n/a,n/a,-99.99,Henriksen +1-Wire,2013-01-21 21:18:00,
2013-01-21 16:23:00,26.6,8.1,29.92,West,267,0.0,0.0,45,0.00,n/a,n/a,-99.99,Henriksen +1-Wire,2013-01-21 21:23:00,
2013-01-21 16:28:00,26.5,8.5,29.92,West,268,0.0,0.0,46,0.00,n/a,n/a,-99.99,Henriksen +1-Wire,2013-01-21 21:28:00,
2013-01-21 16:33:00,26.5,8.8,29.92,SE,133,0.0,0.0,46,0.00,n/a,n/a,-99.99,Henriksen +1-Wire,2013-01-21 21:33:00,
2013-01-21 16:39:00,26.5,8.9,29.91,SSW,204,0.0,0.0,47,0.00,n/a,n/a,-99.99,Henriksen +1-Wire,2013-01-21 21:39:00,
2013-01-21 16:45:00,26.5,9.1,29.91,South,189,0.0,0.0,47,0.00,n/a,n/a,-99.99,Henriksen +1-Wire,2013-01-21 21:45:00,
2013-01-21 16:50:00,26.5,8.9,29.91,SSW,201,0.0,0.0,47,0.00,n/a,n/a,-99.99,Henriksen +1-Wire,2013-01-21 21:50:00,
2013-01-21 16:56:00,26.5,8.9,29.91,SSW,202,0.1,3.1,47,0.00,n/a,n/a,-99.99,Henriksen +1-Wire,2013-01-21 21:56:00,
2013-01-21 17:01:00,26.5,8.9,29.91,WSW,241,0.2,3.1,47,0.00,n/a,n/a,-99.99,Henriksen +1-Wire,2013-01-21 22:01:00,
2013-01-21 17:06:00,26.5,9.1,29.91,SW,236,3.0,5.0,47,0.00,n/a,n/a,-99.99,Henriksen +1-Wire,2013-01-21 22:06:00,
2013-01-21 17:11:00,26.5,9.5,29.91,SW,234,2.3,5.5,48,0.00,n/a,n/a,-99.99,Henriksen +1-Wire,2013-01-21 22:11:00,
2013-01-21 17:16:00,26.5,8.1,29.91,SW,228,2.4,5.5,45,0.00,n/a,n/a,-99.99,Henriksen +1-Wire,2013-01-21 22:16:00,
2013-01-21 17:21:00,26.5,1.1,29.91,WSW,248,1.9,4.9,33,0.00,n/a,n/a,-99.99,Henriksen +1-Wire,2013-01-21 22:21:00,
2013-01-21 17:26:00,26.6,-0.4,29.91,WSW,248,1.7,4.7,30,0.00,n/a,n/a,-99.99,Henriksen +1-Wire,2013-01-21 22:26:00,
2013-01-21 17:31:00,26.6,5.6,29.91,SW,225,0.1,4.0,40,0.00,n/a,n/a,-99.99,Henriksen +1-Wire,2013-01-21 22:31:00,
2013-01-21 17:36:00,26.7,8.2,29.91,WSW,243,0.0,3.9,45,0.00,n/a,n/a,-99.99,Henriksen +1-Wire,2013-01-21 22:36:00,
2013-01-21 17:41:00,26.6,9.8,29.91,SW,225,0.0,2.9,48,0.00,n/a,n/a,-99.99,Henriksen +1-Wire,2013-01-21 22:41:00,
2013-01-21 17:46:00,26.6,10.9,29.91,WSW,246,0.3,3.8,51,0.00,n/a,n/a,-99.99,Henriksen +1-Wire,2013-01-21 22:46:00,
2013-01-21 17:51:00,26.6,11.6,29.91,NW,324,1.9,3.8,52,0.00,n/a,n/a,-99.99,Henriksen +1-Wire,2013-01-21 22:51:00,
2013-01-21 17:56:00,26.5,12.0,29.91,NW,315,2.3,4.7,53,0.00,n/a,n/a,-99.99,Henriksen +1-Wire,2013-01-21 22:56:00,
2013-01-21 18:01:00,26.5,12.1,29.91,SSW,206,0.8,4.7,54,0.00,n/a,n/a,-99.99,Henriksen +1-Wire,2013-01-21 23:01:00,
2013-01-21 18:07:00,26.5,12.4,29.91,West,271,2.4,6.2,55,0.00,n/a,n/a,-99.99,Henriksen +1-Wire,2013-01-21 23:07:00,
2013-01-21 18:12:00,26.5,12.8,29.91,WSW,242,2.6,6.2,56,0.00,n/a,n/a,-99.99,Henriksen +1-Wire,2013-01-21 23:12:00,
2013-01-21 18:17:00,26.6,13.1,29.91,WSW,245,2.3,4.7,56,0.00,n/a,n/a,-99.99,Henriksen +1-Wire,2013-01-21 23:17:00,
2013-01-21 18:22:00,26.6,13.5,29.91,SW,235,2.2,4.0,57,0.00,n/a,n/a,-99.99,Henriksen +1-Wire,2013-01-21 23:22:00,
2013-01-21 18:27:00,26.6,13.9,29.91,SW,235,3.1,5.3,58,0.00,n/a,n/a,-99.99,Henriksen +1-Wire,2013-01-21 23:27:00,
2013-01-21 18:32:00,26.6,14.3,29.91,West,261,2.5,5.3,59,0.00,n/a,n/a,-99.99,Henriksen +1-Wire,2013-01-21 23:32:00,
2013-01-21 18:37:00,26.6,14.3,29.91,West,271,2.1,4.8,59,0.00,n/a,n/a,-99.99,Henriksen +1-Wire,2013-01-21 23:37:00,
2013-01-21 18:42:00,26.5,14.5,29.91,WSW,255,1.9,4.5,60,0.00,n/a,n/a,-99.99,Henriksen +1-Wire,2013-01-21 23:42:00,
2013-01-21 18:47:00,25.8,14.6,29.91,West,269,3.4,6.2,62,0.00,n/a,n/a,-99.99,Henriksen +1-Wire,2013-01-21 23:47:00,
2013-01-21 18:52:00,25.2,14.6,29.91,WNW,300,3.1,6.2,63,0.00,n/a,n/a,-99.99,Henriksen +1-Wire,2013-01-21 23:52:00,
2013-01-21 18:57:00,24.8,14.6,29.92,WNW,301,2.1,5.5,65,0.00,n/a,n/a,-99.99,Henriksen +1-Wire,2013-01-21 23:57:00,
2013-01-21 19:02:00,24.5,14.7,29.92,WNW,300,1.4,4.0,66,0.00,n/a,n/a,-99.99,Henriksen +1-Wire,2013-01-22 00:02:00,
2013-01-21 19:07:00,24.2,15.0,29.92,WNW,296,2.2,5.4,67,0.00,n/a,n/a,-99.99,Henriksen +1-Wire,2013-01-22 00:07:00,
2013-01-21 19:12:00,24.0,15.5,29.92,WNW,301,2.6,5.4,69,0.00,n/a,n/a,-99.99,Henriksen +1-Wire,2013-01-22 00:12:00,
2013-01-21 19:17:00,24.0,16.2,29.92,WNW,302,1.2,4.8,71,0.00,n/a,n/a,-99.99,Henriksen +1-Wire,2013-01-22 00:17:00,
2013-01-21 19:22:00,24.3,17.2,29.92,WNW,291,0.6,4.2,73,0.00,n/a,n/a,-99.99,Henriksen +1-Wire,2013-01-22 00:22:00,
2013-01-21 19:27:00,24.5,17.8,29.92,NW,314,0.7,4.7,75,0.00,n/a,n/a,-99.99,Henriksen +1-Wire,2013-01-22 00:27:00,
2013-01-21 19:32:00,24.6,18.3,29.92,WNW,302,0.2,4.9,76,0.00,n/a,n/a,-99.99,Henriksen +1-Wire,2013-01-22 00:32:00,
2013-01-21 19:37:00,24.6,18.6,29.91,NW,312,0.3,4.9,77,0.00,n/a,n/a,-99.99,Henriksen +1-Wire,2013-01-22 00:37:00,
2013-01-21 19:42:00,24.5,19.1,29.91,WNW,283,0.1,3.2,79,0.00,n/a,n/a,-99.99,Henriksen +1-Wire,2013-01-22 00:42:00,
2013-01-21 19:48:00,24.5,19.3,29.91,NW,319,2.8,5.5,80,0.00,n/a,n/a,-99.99,Henriksen +1-Wire,2013-01-22 00:48:00,
2013-01-21 19:53:00,24.0,19.1,29.91,North,350,2.3,5.5,81,0.00,n/a,n/a,-99.99,Henriksen +1-Wire,2013-01-22 00:53:00,
2013-01-21 19:59:00,23.3,18.7,29.90,North,350,1.8,4.3,82,0.00,n/a,n/a,-99.99,Henriksen +1-Wire,2013-01-22 00:59:00,
2013-01-21 20:05:00,22.9,18.4,29.90,NNW,347,2.4,4.2,82,0.00,n/a,n/a,-99.99,Henriksen +1-Wire,2013-01-22 01:05:00,
2013-01-21 20:10:00,22.6,18.2,29.90,NNW,346,1.5,4.7,83,0.00,n/a,n/a,-99.99,Henriksen +1-Wire,2013-01-22 01:10:00,
2013-01-21 20:16:00,22.5,18.3,29.90,NW,322,1.7,4.7,84,0.00,n/a,n/a,-99.99,Henriksen +1-Wire,2013-01-22 01:16:00,
2013-01-21 20:21:00,22.4,18.4,29.90,NW,308,0.1,3.2,84,0.00,n/a,n/a,-99.99,Henriksen +1-Wire,2013-01-22 01:21:00,
2013-01-21 20:26:00,22.3,18.5,29.90,NNW,330,1.6,3.2,85,0.00,n/a,n/a,-99.99,Henriksen +1-Wire,2013-01-22 01:26:00,
2013-01-21 20:31:00,22.2,18.5,29.90,NNW,334,1.0,3.5,85,0.00,n/a,n/a,-99.99,Henriksen +1-Wire,2013-01-22 01:31:00,
2013-01-21 20:36:00,22.2,18.5,29.90,North,350,0.6,3.5,85,0.00,n/a,n/a,-99.99,Henriksen +1-Wire,2013-01-22 01:36:00,
2013-01-21 20:42:00,22.2,18.5,29.89,North,4,0.1,3.1,85,0.00,n/a,n/a,-99.99,Henriksen +1-Wire,2013-01-22 01:42:00,
2013-01-21 20:47:00,22.1,18.4,29.89,North,5,1.3,3.1,85,0.00,n/a,n/a,-99.99,Henriksen +1-Wire,2013-01-22 01:47:00,
2013-01-21 20:52:00,22.1,18.3,29.89,NNW,342,1.6,3.7,85,0.00,n/a,n/a,-99.99,Henriksen +1-Wire,2013-01-22 01:52:00,
2013-01-21 20:57:00,22.1,18.3,29.89,North,5,0.7,3.7,85,0.00,n/a,n/a,-99.99,Henriksen +1-Wire,2013-01-22 01:57:00,
2013-01-21 21:02:00,22.0,18.2,29.89,NNW,338,0.2,2.4,85,0.00,n/a,n/a,-99.99,Henriksen +1-Wire,2013-01-22 02:02:00,
2013-01-21 21:07:00,22.0,18.0,29.89,NNE,23,0.0,2.4,84,0.00,n/a,n/a,-99.99,Henriksen +1-Wire,2013-01-22 02:07:00,
2013-01-21 21:12:00,22.0,17.9,29.89,SW,234,0.0,0.0,84,0.00,n/a,n/a,-99.99,Henriksen +1-Wire,2013-01-22 02:12:00,
2013-01-21 21:17:00,22.0,17.8,29.89,East,84,0.0,0.0,83,0.00,n/a,n/a,-99.99,Henriksen +1-Wire,2013-01-22 02:17:00,
2013-01-21 21:22:00,22.0,17.7,29.88,NE,56,0.0,0.0,83,0.00,n/a,n/a,-99.99,Henriksen +1-Wire,2013-01-22 02:22:00,
2013-01-21 21:27:00,21.9,17.6,29.88,East,89,0.0,0.0,83,0.00,n/a,n/a,-99.99,Henriksen +1-Wire,2013-01-22 02:27:00,
2013-01-21 21:33:00,21.8,17.5,29.88,SE,134,0.0,0.0,83,0.00,n/a,n/a,-99.99,Henriksen +1-Wire,2013-01-22 02:33:00,
2013-01-21 21:38:00,22.4,18.1,29.88,SE,134,0.0,0.0,83,0.00,n/a,n/a,-99.99,Henriksen +1-Wire,2013-01-22 02:38:00,
2013-01-21 21:44:00,22.7,18.5,29.87,East,88,0.8,2.0,83,0.00,n/a,n/a,-99.99,Henriksen +1-Wire,2013-01-22 02:44:00,
2013-01-21 21:49:00,22.9,18.7,29.87,East,80,0.2,2.8,83,0.00,n/a,n/a,-99.99,Henriksen +1-Wire,2013-01-22 02:49:00,
2013-01-21 21:54:00,23.0,18.9,29.86,ENE,71,1.4,2.8,84,0.00,n/a,n/a,-99.99,Henriksen +1-Wire,2013-01-22 02:54:00,
2013-01-21 21:59:00,23.0,19.0,29.86,ENE,73,0.3,2.4,84,0.00,n/a,n/a,-99.99,Henriksen +1-Wire,2013-01-22 02:59:00,
2013-01-21 22:04:00,22.9,19.0,29.85,NE,48,0.1,2.5,84,0.00,n/a,n/a,-99.99,Henriksen +1-Wire,2013-01-22 03:04:00,
2013-01-21 22:09:00,22.8,19.0,29.85,NE,49,1.9,2.9,85,0.00,n/a,n/a,-99.99,Henriksen +1-Wire,2013-01-22 03:09:00,
2013-01-21 22:14:00,22.3,18.7,29.84,NNE,22,0.0,2.9,85,0.00,n/a,n/a,-99.99,Henriksen +1-Wire,2013-01-22 03:14:00,
2013-01-21 22:20:00,21.6,18.0,29.83,NNE,27,0.0,1.7,85,0.00,n/a,n/a,-99.99,Henriksen +1-Wire,2013-01-22 03:20:00,
2013-01-21 22:26:00,21.1,17.5,29.84,NE,45,0.0,0.0,86,0.00,n/a,n/a,-99.99,Henriksen +1-Wire,2013-01-22 03:26:00,
2013-01-21 22:31:00,20.9,17.3,29.84,NE,45,0.0,0.0,85,0.00,n/a,n/a,-99.99,Henriksen +1-Wire,2013-01-22 03:31:00,
2013-01-21 22:36:00,20.7,17.2,29.84,NE,45,0.0,0.0,86,0.00,n/a,n/a,-99.99,Henriksen +1-Wire,2013-01-22 03:36:00,
2013-01-21 22:41:00,20.7,17.2,29.84,NE,45,0.0,0.0,86,0.00,n/a,n/a,-99.99,Henriksen +1-Wire,2013-01-22 03:41:00,
2013-01-21 22:46:00,21.2,17.8,29.83,NE,39,0.0,0.0,86,0.00,n/a,n/a,-99.99,Henriksen +1-Wire,2013-01-22 03:46:00,
2013-01-21 22:51:00,21.7,18.3,29.83,NNE,17,0.0,0.0,86,0.00,n/a,n/a,-99.99,Henriksen +1-Wire,2013-01-22 03:51:00,
2013-01-21 22:56:00,22.2,18.7,29.83,NNE,16,0.0,0.0,86,0.00,n/a,n/a,-99.99,Henriksen +1-Wire,2013-01-22 03:56:00,
2013-01-21 23:01:00,22.4,18.8,29.83,ENE,59,0.0,0.0,85,0.00,n/a,n/a,-99.99,Henriksen +1-Wire,2013-01-22 04:01:00,
2013-01-21 23:06:00,22.7,18.9,29.82,NE,50,0.0,0.0,85,0.00,n/a,n/a,-99.99,Henriksen +1-Wire,2013-01-22 04:06:00,
2013-01-21 23:12:00,22.9,19.0,29.81,NE,47,0.0,0.0,85,0.00,n/a,n/a,-99.99,Henriksen +1-Wire,2013-01-22 04:12:00,
2013-01-21 23:17:00,22.9,18.9,29.81,NE,45,0.0,0.0,84,0.00,n/a,n/a,-99.99,Henriksen +1-Wire,2013-01-22 04:17:00,
2013-01-21 23:22:00,23.0,18.8,29.81,NE,42,0.0,0.0,83,0.00,n/a,n/a,-99.99,Henriksen +1-Wire,2013-01-22 04:22:00,
2013-01-21 23:27:00,23.0,18.8,29.81,NE,47,0.0,0.0,83,0.00,n/a,n/a,-99.99,Henriksen +1-Wire,2013-01-22 04:27:00,
2013-01-21 23:32:00,23.1,18.9,29.80,NE,51,0.0,0.0,83,0.00,n/a,n/a,-99.99,Henriksen +1-Wire,2013-01-22 04:32:00,
2013-01-21 23:37:00,23.1,18.8,29.80,NE,47,0.0,0.0,83,0.00,n/a,n/a,-99.99,Henriksen +1-Wire,2013-01-22 04:37:00,
2013-01-21 23:42:00,23.1,18.8,29.79,NE,53,0.0,0.0,83,0.00,n/a,n/a,-99.99,Henriksen +1-Wire,2013-01-22 04:42:00,
2013-01-21 23:48:00,23.1,18.7,29.79,NE,50,0.0,0.0,83,0.00,n/a,n/a,-99.99,Henriksen +1-Wire,2013-01-22 04:48:00,
2013-01-21 23:53:00,23.0,18.7,29.78,NE,44,0.0,0.0,83,0.00,n/a,n/a,-99.99,Henriksen +1-Wire,2013-01-22 04:53:00,
2013-01-21 23:58:00,23.0,18.6,29.78,NE,41,0.0,0.0,83,0.00,n/a,n/a,-99.99,Henriksen +1-Wire,2013-01-22 04:58:00,